sensor_id;sensor_type;location;lat;lon;timestamp;pressure;altitude;pressure_sealevel;temperature;humidity
10093;BME280;5085;48.092;11.484;2022-12-07T00:01:26;95116.75;;;2.70;100.00
10093;BME280;5085;48.092;11.484;2022-12-07T00:03:54;95110.63;;;2.70;100.00
10093;BME280;5085;48.092;11.484;2022-12-07T00:06:23;95109.81;;;2.69;100.00
10093;BME280;5085;48.092;11.484;2022-12-07T00:08:49;95105.75;;;2.67;100.00
10093;BME280;5085;48.092;11.484;2022-12-07T00:11:20;95113.38;;;2.63;100.00
10093;BME280;5085;48.092;11.484;2022-12-07T00:13:52;95105.41;;;2.63;100.00
10093;BME280;5085;48.092;11.484;2022-12-07T00:16:19;95102.16;;;2.61;100.00
10093;BME280;5085;48.092;11.484;2022-12-07T00:18:46;95103.56;;;2.64;100.00
10093;BME280;5085;48.092;11.484;2022-12-07T00:21:19;95103.56;;;2.64;100.00
10093;BME280;5085;48.092;11.484;2022-12-07T00:23:47;95091.91;;;2.65;100.00
10093;BME280;5085;48.092;11.484;2022-12-07T00:26:16;95097.41;;;2.63;100.00
10093;BME280;5085;48.092;11.484;2022-12-07T00:28:47;95100.31;;;2.62;100.00
10093;BME280;5085;48.092;11.484;2022-12-07T00:31:13;95094.44;;;2.60;100.00
10093;BME280;5085;48.092;11.484;2022-12-07T00:33:40;95097.91;;;2.60;100.00
10093;BME280;5085;48.092;11.484;2022-12-07T00:36:08;95092.78;;;2.59;100.00
10093;BME280;5085;48.092;11.484;2022-12-07T00:38:36;95090.72;;;2.61;100.00
10093;BME280;5085;48.092;11.484;2022-12-07T00:41:09;95098.09;;;2.59;100.00
10093;BME280;5085;48.092;11.484;2022-12-07T00:43:35;95092.78;;;2.59;100.00
10093;BME280;5085;48.092;11.484;2022-12-07T00:46:01;95082.41;;;2.57;100.00
10093;BME280;5085;48.092;11.484;2022-12-07T00:48:27;95091.41;;;2.56;100.00
10093;BME280;5085;48.092;11.484;2022-12-07T00:50:53;95098.78;;;2.54;100.00
10093;BME280;5085;48.092;11.484;2022-12-07T00:53:19;95095.75;;;2.50;100.00
10093;BME280;5085;48.092;11.484;2022-12-07T00:55:46;95097.59;;;2.50;100.00
10093;BME280;5085;48.092;11.484;2022-12-07T00:58:12;95094.94;;;2.50;100.00
10093;BME280;5085;48.092;11.484;2022-12-07T01:00:40;95093.09;;;2.50;100.00
10093;BME280;5085;48.092;11.484;2022-12-07T01:03:08;95093.34;;;2.49;100.00
10093;BME280;5085;48.092;11.484;2022-12-07T01:05:35;95101.31;;;2.49;100.00
10093;BME280;5085;48.092;11.484;2022-12-07T01:08:01;95091.47;;;2.49;100.00
10093;BME280;5085;48.092;11.484;2022-12-07T01:10:28;95098.88;;;2.47;100.00
10093;BME280;5085;48.092;11.484;2022-12-07T01:12:56;95087.44;;;2.47;100.00
10093;BME280;5085;48.092;11.484;2022-12-07T01:15:22;95091.13;;;2.46;100.00
10093;BME280;5085;48.092;11.484;2022-12-07T01:17:48;95076.00;;;2.46;100.00
10093;BME280;5085;48.092;11.484;2022-12-07T01:20:14;95091.13;;;2.46;100.00
10093;BME280;5085;48.092;11.484;2022-12-07T01:22:43;95094.63;;;2.46;100.00
10093;BME280;5085;48.092;11.484;2022-12-07T01:25:10;95091.13;;;2.46;100.00
10093;BME280;5085;48.092;11.484;2022-12-07T01:27:36;95095.63;;;2.45;100.00
10093;BME280;5085;48.092;11.484;2022-12-07T01:30:05;95092.75;;;2.47;100.00
10093;BME280;5085;48.092;11.484;2022-12-07T01:32:32;95092.16;;;2.45;100.00
10093;BME280;5085;48.092;11.484;2022-12-07T01:34:58;95097.72;;;2.43;100.00
10093;BME280;5085;48.092;11.484;2022-12-07T01:37:24;95089.50;;;2.45;100.00
10093;BME280;5085;48.092;11.484;2022-12-07T01:39:51;95092.97;;;2.45;100.00
10093;BME280;5085;48.092;11.484;2022-12-07T01:42:18;95095.63;;;2.45;100.00
10093;BME280;5085;48.092;11.484;2022-12-07T01:47:52;95093.78;;;2.46;100.00
10093;BME280;5085;48.092;11.484;2022-12-07T01:50:21;95099.94;;;2.46;100.00
10093;BME280;5085;48.092;11.484;2022-12-07T01:52:52;95092.16;;;2.45;100.00
10093;BME280;5085;48.092;11.484;2022-12-07T01:55:19;95095.63;;;2.45;100.00
10093;BME280;5085;48.092;11.484;2022-12-07T01:57:49;95082.94;;;2.47;100.00
10093;BME280;5085;48.092;11.484;2022-12-07T02:00:17;95085.59;;;2.47;100.00
10093;BME280;5085;48.092;11.484;2022-12-07T02:05:12;95083.75;;;2.48;100.00
10093;BME280;5085;48.092;11.484;2022-12-07T02:07:39;95090.91;;;2.47;100.00
10093;BME280;5085;48.092;11.484;2022-12-07T02:10:17;95089.31;;;2.46;100.00
10093;BME280;5085;48.092;11.484;2022-12-07T02:12:54;95077.84;;;2.46;100.00
10093;BME280;5085;48.092;11.484;2022-12-07T02:15:24;95088.69;;;2.44;100.00
10093;BME280;5085;48.092;11.484;2022-12-07T02:20:23;95077.50;;;2.42;100.00
10093;BME280;5085;48.092;11.484;2022-12-07T02:41:48;95072.03;;;2.37;100.00
10093;BME280;5085;48.092;11.484;2022-12-07T02:45:15;95065.09;;;2.36;100.00
10093;BME280;5085;48.092;11.484;2022-12-07T02:48:29;95066.13;;;2.35;100.00
10093;BME280;5085;48.092;11.484;2022-12-07T02:51:38;95062.66;;;2.35;100.00
10093;BME280;5085;48.092;11.484;2022-12-07T02:54:29;95061.41;;;2.37;100.00
10093;BME280;5085;48.092;11.484;2022-12-07T03:01:16;95063.47;;;2.35;100.00
10093;BME280;5085;48.092;11.484;2022-12-07T03:12:10;95062.75;;;2.28;100.00
10093;BME280;5085;48.092;11.484;2022-12-07T03:19:14;95064.59;;;2.28;100.00
10093;BME280;5085;48.092;11.484;2022-12-07T03:22:37;95056.63;;;2.28;100.00
10093;BME280;5085;48.092;11.484;2022-12-07T03:25:41;95061.13;;;2.27;100.00
10093;BME280;5085;48.092;11.484;2022-12-07T03:28:55;95055.81;;;2.27;100.00
10093;BME280;5085;48.092;11.484;2022-12-07T03:39:02;95058.47;;;2.27;100.00
10093;BME280;5085;48.092;11.484;2022-12-07T03:42:08;95055.38;;;2.30;100.00
10093;BME280;5085;48.092;11.484;2022-12-07T03:44:45;95057.22;;;2.30;100.00
10093;BME280;5085;48.092;11.484;2022-12-07T03:47:38;95054.34;;;2.31;100.00
10093;BME280;5085;48.092;11.484;2022-12-07T03:51:08;95055.38;;;2.30;100.00
10093;BME280;5085;48.092;11.484;2022-12-07T03:54:16;95051.06;;;2.29;100.00
10093;BME280;5085;48.092;11.484;2022-12-07T03:57:02;95047.41;;;2.30;100.00
10093;BME280;5085;48.092;11.484;2022-12-07T04:00:07;95049.84;;;2.32;100.00
10093;BME280;5085;48.092;11.484;2022-12-07T04:03:25;95039.88;;;2.27;100.00
10093;BME280;5085;48.092;11.484;2022-12-07T04:06:51;95047.19;;;2.32;100.00
10093;BME280;5085;48.092;11.484;2022-12-07T04:09:17;95044.75;;;2.30;100.00
10093;BME280;5085;48.092;11.484;2022-12-07T04:11:43;95050.06;;;2.30;100.00
10093;BME280;5085;48.092;11.484;2022-12-07T04:14:09;95050.06;;;2.30;100.00
10093;BME280;5085;48.092;11.484;2022-12-07T04:16:45;95046.59;;;2.30;100.00
10093;BME280;5085;48.092;11.484;2022-12-07T04:19:12;95044.75;;;2.30;100.00
10093;BME280;5085;48.092;11.484;2022-12-07T04:21:38;95045.75;;;2.29;100.00
10093;BME280;5085;48.092;11.484;2022-12-07T04:24:05;95046.81;;;2.28;100.00
10093;BME280;5085;48.092;11.484;2022-12-07T04:26:31;95050.06;;;2.30;100.00
10093;BME280;5085;48.092;11.484;2022-12-07T04:28:57;95054.78;;;2.28;100.00
10093;BME280;5085;48.092;11.484;2022-12-07T04:31:23;95053.97;;;2.28;100.00
10093;BME280;5085;48.092;11.484;2022-12-07T04:33:49;95058.47;;;2.27;100.00
10093;BME280;5085;48.092;11.484;2022-12-07T04:36:15;95048.09;;;2.25;100.00
10093;BME280;5085;48.092;11.484;2022-12-07T04:38:41;95045.63;;;2.24;100.00
10093;BME280;5085;48.092;11.484;2022-12-07T04:41:07;95049.09;;;2.24;100.00
10093;BME280;5085;48.092;11.484;2022-12-07T04:43:35;95041.59;;;2.21;100.00
10093;BME280;5085;48.092;11.484;2022-12-07T04:46:01;95046.09;;;2.21;100.00
10093;BME280;5085;48.092;11.484;2022-12-07T04:48:27;95043.66;;;2.19;100.00
10093;BME280;5085;48.092;11.484;2022-12-07T04:50:54;95048.97;;;2.19;100.00
10093;BME280;5085;48.092;11.484;2022-12-07T04:53:20;95051.63;;;2.19;100.00
10093;BME280;5085;48.092;11.484;2022-12-07T04:55:46;95053.47;;;2.19;100.00
10093;BME280;5085;48.092;11.484;2022-12-07T04:58:13;95050.69;;;2.14;100.00
10093;BME280;5085;48.092;11.484;2022-12-07T05:00:39;95048.47;;;2.11;100.00
10093;BME280;5085;48.092;11.484;2022-12-07T05:03:05;95051.56;;;2.08;100.00
10093;BME280;5085;48.092;11.484;2022-12-07T05:05:31;95048.56;;;2.04;100.00
10093;BME280;5085;48.092;11.484;2022-12-07T05:07:58;95054.69;;;2.05;100.00
10093;BME280;5085;48.092;11.484;2022-12-07T05:10:24;95048.78;;;2.03;100.00
10093;BME280;5085;48.092;11.484;2022-12-07T05:12:50;95051.28;;;1.97;100.00
10093;BME280;5085;48.092;11.484;2022-12-07T05:15:16;95055.78;;;1.97;100.00
10093;BME280;5085;48.092;11.484;2022-12-07T05:17:42;95054.63;;;1.93;100.00
10093;BME280;5085;48.092;11.484;2022-12-07T05:20:08;95051.34;;;1.91;100.00
10093;BME280;5085;48.092;11.484;2022-12-07T05:22:34;95054.25;;;1.89;100.00
10093;BME280;5085;48.092;11.484;2022-12-07T05:25:01;95045.69;;;1.87;100.00
10093;BME280;5085;48.092;11.484;2022-12-07T05:27:27;95048.78;;;1.84;100.00
10093;BME280;5085;48.092;11.484;2022-12-07T05:29:53;95048.19;;;1.82;100.00
10093;BME280;5085;48.092;11.484;2022-12-07T05:32:19;95047.63;;;1.80;100.00
10093;BME280;5085;48.092;11.484;2022-12-07T05:34:45;95043.34;;;1.79;100.00
10093;BME280;5085;48.092;11.484;2022-12-07T05:37:11;95034.78;;;1.77;100.00
10093;BME280;5085;48.092;11.484;2022-12-07T05:39:37;95044.00;;;1.74;100.00
10093;BME280;5085;48.092;11.484;2022-12-07T05:42:07;95047.47;;;1.75;100.00
10093;BME280;5085;48.092;11.484;2022-12-07T05:44:41;95057.28;;;1.74;100.00
10093;BME280;5085;48.092;11.484;2022-12-07T05:47:07;95051.13;;;1.74;100.00
10093;BME280;5085;48.092;11.484;2022-12-07T05:49:33;95047.47;;;1.75;100.00
10093;BME280;5085;48.092;11.484;2022-12-07T05:52:00;95044.81;;;1.75;100.00
10093;BME280;5085;48.092;11.484;2022-12-07T05:54:26;95051.13;;;1.74;100.00
10093;BME280;5085;48.092;11.484;2022-12-07T05:56:52;95061.97;;;1.72;100.00
10093;BME280;5085;48.092;11.484;2022-12-07T05:59:18;95053.22;;;1.72;100.00
10093;BME280;5085;48.092;11.484;2022-12-07T06:01:50;95051.97;;;1.74;100.00
10093;BME280;5085;48.092;11.484;2022-12-07T06:04:17;95054.63;;;1.74;100.00
10093;BME280;5085;48.092;11.484;2022-12-07T06:06:43;95053.59;;;1.75;100.00
10093;BME280;5085;48.092;11.484;2022-12-07T06:09:09;95058.66;;;1.77;100.00
10093;BME280;5085;48.092;11.484;2022-12-07T06:11:35;95063.16;;;1.77;100.00
10093;BME280;5085;48.092;11.484;2022-12-07T06:14:20;95052.56;;;1.77;100.00
10093;BME280;5085;48.092;11.484;2022-12-07T06:16:46;95067.44;;;1.78;100.00
10093;BME280;5085;48.092;11.484;2022-12-07T06:19:12;95066.63;;;1.77;100.00
10093;BME280;5085;48.092;11.484;2022-12-07T06:21:38;95066.63;;;1.77;100.00
10093;BME280;5085;48.092;11.484;2022-12-07T06:24:04;95058.66;;;1.77;100.00
10093;BME280;5085;48.092;11.484;2022-12-07T06:26:31;95062.13;;;1.78;100.00
10093;BME280;5085;48.092;11.484;2022-12-07T06:28:57;95069.28;;;1.77;100.00
10093;BME280;5085;48.092;11.484;2022-12-07T06:31:23;95067.66;;;1.76;100.00
10093;BME280;5085;48.092;11.484;2022-12-07T06:33:49;95070.31;;;1.76;100.00
10093;BME280;5085;48.092;11.484;2022-12-07T06:36:15;95068.72;;;1.75;100.00
10093;BME280;5085;48.092;11.484;2022-12-07T06:38:41;95073.22;;;1.74;100.00
10093;BME280;5085;48.092;11.484;2022-12-07T06:41:07;95076.06;;;1.73;100.00
10093;BME280;5085;48.092;11.484;2022-12-07T06:43:33;95071.78;;;1.72;100.00
10093;BME280;5085;48.092;11.484;2022-12-07T06:45:59;95067.53;;;1.71;100.00
10093;BME280;5085;48.092;11.484;2022-12-07T06:48:25;95072.84;;;1.71;100.00
10093;BME280;5085;48.092;11.484;2022-12-07T06:50:51;95071.19;;;1.70;100.00
10093;BME280;5085;48.092;11.484;2022-12-07T06:53:17;95081.81;;;1.70;100.00
10093;BME280;5085;48.092;11.484;2022-12-07T06:55:43;95081.00;;;1.69;100.00
10093;BME280;5085;48.092;11.484;2022-12-07T06:58:09;95087.72;;;1.72;100.00
10093;BME280;5085;48.092;11.484;2022-12-07T07:00:35;95082.41;;;1.72;100.00
10093;BME280;5085;48.092;11.484;2022-12-07T07:03:01;95079.38;;;1.68;100.00
10093;BME280;5085;48.092;11.484;2022-12-07T07:05:27;95075.91;;;1.68;100.00
10093;BME280;5085;48.092;11.484;2022-12-07T07:07:53;95079.63;;;1.67;100.00
10093;BME280;5085;48.092;11.484;2022-12-07T07:10:19;95084.69;;;1.68;100.00
10093;BME280;5085;48.092;11.484;2022-12-07T07:12:45;95084.69;;;1.68;100.00
10093;BME280;5085;48.092;11.484;2022-12-07T07:15:11;95077.75;;;1.67;100.00
10093;BME280;5085;48.092;11.484;2022-12-07T07:17:37;95081.22;;;1.68;100.00
10093;BME280;5085;48.092;11.484;2022-12-07T07:20:04;95091.03;;;1.67;100.00
10093;BME280;5085;48.092;11.484;2022-12-07T07:22:30;95083.06;;;1.67;100.00
10093;BME280;5085;48.092;11.484;2022-12-07T07:24:56;95089.19;;;1.68;100.00
10093;BME280;5085;48.092;11.484;2022-12-07T07:27:22;95094.25;;;1.69;100.00
10093;BME280;5085;48.092;11.484;2022-12-07T07:29:49;95094.25;;;1.69;100.00
10093;BME280;5085;48.092;11.484;2022-12-07T07:32:15;95097.16;;;1.68;100.00
10093;BME280;5085;48.092;11.484;2022-12-07T07:34:41;95100.38;;;1.70;100.00
10093;BME280;5085;48.092;11.484;2022-12-07T07:37:07;95101.22;;;1.70;100.00
10093;BME280;5085;48.092;11.484;2022-12-07T07:39:33;95100.38;;;1.70;100.00
10093;BME280;5085;48.092;11.484;2022-12-07T07:41:59;95099.56;;;1.69;100.00
10093;BME280;5085;48.092;11.484;2022-12-07T07:44:26;95104.69;;;1.71;100.00
10093;BME280;5085;48.092;11.484;2022-12-07T07:46:52;95102.59;;;1.73;100.00
10093;BME280;5085;48.092;11.484;2022-12-07T07:49:18;95105.63;;;1.77;100.00
10093;BME280;5085;48.092;11.484;2022-12-07T07:51:44;95107.47;;;1.76;100.00
10093;BME280;5085;48.092;11.484;2022-12-07T07:54:10;95098.72;;;1.75;100.00
10093;BME280;5085;48.092;11.484;2022-12-07T07:56:36;95097.66;;;1.77;100.00
10093;BME280;5085;48.092;11.484;2022-12-07T07:59:02;95111.09;;;1.82;100.00
10093;BME280;5085;48.092;11.484;2022-12-07T08:01:28;95107.19;;;1.84;100.00
10093;BME280;5085;48.092;11.484;2022-12-07T08:03:54;95103.28;;;1.87;100.00
10093;BME280;5085;48.092;11.484;2022-12-07T08:06:20;95101.44;;;1.87;100.00
10093;BME280;5085;48.092;11.484;2022-12-07T08:08:46;95106.91;;;1.92;100.00
10093;BME280;5085;48.092;11.484;2022-12-07T08:11:12;95106.47;;;1.95;100.00
10093;BME280;5085;48.092;11.484;2022-12-07T08:13:38;95106.81;;;1.99;100.00
10093;BME280;5085;48.092;11.484;2022-12-07T08:16:06;95113.31;;;2.03;100.00
10093;BME280;5085;48.092;11.484;2022-12-07T08:18:37;95106.75;;;2.06;100.00
10093;BME280;5085;48.092;11.484;2022-12-07T08:21:03;95106.09;;;2.10;100.00
10093;BME280;5085;48.092;11.484;2022-12-07T08:23:30;95107.25;;;2.14;100.00
10093;BME280;5085;48.092;11.484;2022-12-07T08:26:08;95107.63;;;2.18;100.00
10093;BME280;5085;48.092;11.484;2022-12-07T08:28:35;95101.03;;;2.20;100.00
10093;BME280;5085;48.092;11.484;2022-12-07T08:31:02;95104.88;;;2.24;100.00
10093;BME280;5085;48.092;11.484;2022-12-07T08:33:29;95102.81;;;2.27;100.00
10093;BME280;5085;48.092;11.484;2022-12-07T08:36:04;95108.13;;;2.27;100.00
10093;BME280;5085;48.092;11.484;2022-12-07T08:38:30;95102.81;;;2.27;100.00
10093;BME280;5085;48.092;11.484;2022-12-07T08:40:57;95108.72;;;2.29;100.00
10093;BME280;5085;48.092;11.484;2022-12-07T08:43:24;95108.88;;;2.34;100.00
10093;BME280;5085;48.092;11.484;2022-12-07T08:48:26;95108.22;;;2.38;100.00
10093;BME280;5085;48.092;11.484;2022-12-07T08:50:53;95108.78;;;2.40;100.00
10093;BME280;5085;48.092;11.484;2022-12-07T08:53:19;95107.97;;;2.40;100.00
10093;BME280;5085;48.092;11.484;2022-12-07T08:55:45;95103.59;;;2.45;100.00
10093;BME280;5085;48.092;11.484;2022-12-07T08:58:12;95114.16;;;2.52;100.00
10093;BME280;5085;48.092;11.484;2022-12-07T09:00:38;95111.19;;;2.60;100.00
10093;BME280;5085;48.092;11.484;2022-12-07T09:03:04;95112.72;;;2.68;100.00
10093;BME280;5085;48.092;11.484;2022-12-07T09:05:32;95115.03;;;2.76;100.00
10093;BME280;5085;48.092;11.484;2022-12-07T09:08:00;95115.31;;;2.86;100.00
10093;BME280;5085;48.092;11.484;2022-12-07T09:10:28;95106.41;;;2.92;100.00
10093;BME280;5085;48.092;11.484;2022-12-07T09:12:54;95105.06;;;3.01;100.00
10093;BME280;5085;48.092;11.484;2022-12-07T09:15:20;95107.84;;;3.07;100.00
10093;BME280;5085;48.092;11.484;2022-12-07T09:17:46;95102.66;;;3.12;100.00
10093;BME280;5085;48.092;11.484;2022-12-07T09:20:12;95099.66;;;3.20;100.00
10093;BME280;5085;48.092;11.484;2022-12-07T09:22:38;95100.16;;;3.29;100.00
10093;BME280;5085;48.092;11.484;2022-12-07T09:25:04;95099.00;;;3.36;100.00
10093;BME280;5085;48.092;11.484;2022-12-07T09:27:31;95101.31;;;3.44;100.00
10093;BME280;5085;48.092;11.484;2022-12-07T09:29:57;95104.66;;;3.51;100.00
10093;BME280;5085;48.092;11.484;2022-12-07T09:32:23;95103.75;;;3.58;100.00
10093;BME280;5085;48.092;11.484;2022-12-07T09:34:49;95100.75;;;3.66;100.00
10093;BME280;5085;48.092;11.484;2022-12-07T09:37:15;95101.78;;;3.76;100.00
10093;BME280;5085;48.092;11.484;2022-12-07T09:39:41;95097.84;;;3.91;100.00
10093;BME280;5085;48.092;11.484;2022-12-07T09:42:07;95097.47;;;3.99;100.00
10093;BME280;5085;48.092;11.484;2022-12-07T09:44:34;95108.25;;;4.04;100.00
10093;BME280;5085;48.092;11.484;2022-12-07T09:47:01;95103.38;;;4.13;100.00
10093;BME280;5085;48.092;11.484;2022-12-07T09:49:30;95099.50;;;4.20;100.00
10093;BME280;5085;48.092;11.484;2022-12-07T09:52:24;95099.13;;;4.29;100.00
10093;BME280;5085;48.092;11.484;2022-12-07T09:54:51;95096.69;;;4.39;100.00
10093;BME280;5085;48.092;11.484;2022-12-07T09:57:27;95099.41;;;4.56;100.00
10093;BME280;5085;48.092;11.484;2022-12-07T09:59:55;95091.22;;;4.74;100.00
10093;BME280;5085;48.092;11.484;2022-12-07T10:02:26;95091.72;;;4.88;100.00
10093;BME280;5085;48.092;11.484;2022-12-07T10:04:55;95092.72;;;4.98;100.00
10093;BME280;5085;48.092;11.484;2022-12-07T10:07:23;95092.56;;;5.05;100.00
10093;BME280;5085;48.092;11.484;2022-12-07T10:09:49;95085.81;;;5.14;100.00
10093;BME280;5085;48.092;11.484;2022-12-07T10:12:15;95082.97;;;5.21;100.00
10093;BME280;5085;48.092;11.484;2022-12-07T10:15:03;95081.75;;;5.29;100.00
10093;BME280;5085;48.092;11.484;2022-12-07T10:20:15;95090.00;;;5.44;100.00
10093;BME280;5085;48.092;11.484;2022-12-07T10:23:02;95081.16;;;5.60;100.00
10093;BME280;5085;48.092;11.484;2022-12-07T10:25:31;95082.78;;;5.78;100.00
10093;BME280;5085;48.092;11.484;2022-12-07T10:30:57;95078.38;;;6.06;100.00
10093;BME280;5085;48.092;11.484;2022-12-07T10:35:59;95088.91;;;6.34;100.00
10093;BME280;5085;48.092;11.484;2022-12-07T10:38:26;95088.38;;;6.59;100.00
10093;BME280;5085;48.092;11.484;2022-12-07T10:41:06;95090.94;;;6.98;100.00
10093;BME280;5085;48.092;11.484;2022-12-07T10:43:33;95089.50;;;7.17;99.81
10093;BME280;5085;48.092;11.484;2022-12-07T10:46:21;95083.84;;;7.46;94.39
10093;BME280;5085;48.092;11.484;2022-12-07T10:51:57;95080.81;;;7.69;88.07
10093;BME280;5085;48.092;11.484;2022-12-07T10:57:26;95073.56;;;8.07;85.82
10093;BME280;5085;48.092;11.484;2022-12-07T11:00:01;95072.34;;;8.35;79.38
10093;BME280;5085;48.092;11.484;2022-12-07T11:05:48;95056.50;;;9.32;72.53
10093;BME280;5085;48.092;11.484;2022-12-07T11:08:45;95056.97;;;9.85;67.72
10093;BME280;5085;48.092;11.484;2022-12-07T11:11:18;95056.88;;;10.41;62.13
10093;BME280;5085;48.092;11.484;2022-12-07T11:14:18;95051.81;;;10.30;60.03
10093;BME280;5085;48.092;11.484;2022-12-07T11:16:58;95042.09;;;10.34;59.37
10093;BME280;5085;48.092;11.484;2022-12-07T11:21:57;95045.94;;;13.05;51.89
10093;BME280;5085;48.092;11.484;2022-12-07T11:24:29;95039.53;;;13.71;48.85
10093;BME280;5085;48.092;11.484;2022-12-07T11:35:13;95018.06;;;13.42;47.20
10093;BME280;5085;48.092;11.484;2022-12-07T11:37:46;95022.09;;;13.07;48.63
10093;BME280;5085;48.092;11.484;2022-12-07T11:40:24;95024.88;;;13.01;48.28
10093;BME280;5085;48.092;11.484;2022-12-07T11:45:43;95029.81;;;13.84;45.92
10093;BME280;5085;48.092;11.484;2022-12-07T11:48:12;95028.59;;;14.36;44.74
10093;BME280;5085;48.092;11.484;2022-12-07T11:50:57;95026.63;;;14.56;44.97
10093;BME280;5085;48.092;11.484;2022-12-07T11:53:28;95023.59;;;15.21;43.72
10093;BME280;5085;48.092;11.484;2022-12-07T11:56:12;95008.84;;;15.58;42.62
10093;BME280;5085;48.092;11.484;2022-12-07T12:04:47;94995.22;;;13.15;46.26
10093;BME280;5085;48.092;11.484;2022-12-07T12:07:19;94991.41;;;12.41;48.77
10093;BME280;5085;48.092;11.484;2022-12-07T12:09:59;94989.03;;;12.34;49.39
10093;BME280;5085;48.092;11.484;2022-12-07T12:21:18;94986.41;;;14.85;43.47
10093;BME280;5085;48.092;11.484;2022-12-07T12:23:46;94977.44;;;14.62;44.04
10093;BME280;5085;48.092;11.484;2022-12-07T12:26:20;94972.28;;;14.61;43.33
10093;BME280;5085;48.092;11.484;2022-12-07T12:33:55;94975.47;;;13.34;46.23
10093;BME280;5085;48.092;11.484;2022-12-07T12:36:44;94976.66;;;12.52;47.18
10093;BME280;5085;48.092;11.484;2022-12-07T12:39:16;94964.06;;;11.99;48.88
10093;BME280;5085;48.092;11.484;2022-12-07T12:51:52;94966.19;;;9.36;59.70
10093;BME280;5085;48.092;11.484;2022-12-07T12:57:01;94957.72;;;9.94;61.35
10093;BME280;5085;48.092;11.484;2022-12-07T12:59:33;94964.63;;;10.20;59.65
10093;BME280;5085;48.092;11.484;2022-12-07T13:05:20;94955.91;;;9.74;59.07
10093;BME280;5085;48.092;11.484;2022-12-07T13:07:49;94964.59;;;9.40;59.64
10093;BME280;5085;48.092;11.484;2022-12-07T13:12:58;94956.00;;;8.72;62.36
10093;BME280;5085;48.092;11.484;2022-12-07T13:15:33;94949.16;;;8.23;64.26
10093;BME280;5085;48.092;11.484;2022-12-07T13:18:02;94951.44;;;7.84;67.80
10093;BME280;5085;48.092;11.484;2022-12-07T13:28:50;94944.78;;;6.65;79.39
10093;BME280;5085;48.092;11.484;2022-12-07T13:31:35;94942.41;;;6.41;80.60
10093;BME280;5085;48.092;11.484;2022-12-07T13:34:26;94939.59;;;6.26;82.58
10093;BME280;5085;48.092;11.484;2022-12-07T13:36:51;94940.84;;;6.18;82.75
10093;BME280;5085;48.092;11.484;2022-12-07T13:39:20;94942.72;;;6.18;84.84
10093;BME280;5085;48.092;11.484;2022-12-07T13:41:56;94939.47;;;6.16;85.88
10093;BME280;5085;48.092;11.484;2022-12-07T13:44:27;94935.25;;;6.20;84.84
10093;BME280;5085;48.092;11.484;2022-12-07T13:46:55;94933.69;;;6.24;84.83
10093;BME280;5085;48.092;11.484;2022-12-07T13:49:28;94933.13;;;6.22;85.86
10093;BME280;5085;48.092;11.484;2022-12-07T13:51:55;94933.09;;;6.17;85.86
10093;BME280;5085;48.092;11.484;2022-12-07T13:54:32;94937.78;;;6.05;85.82
10093;BME280;5085;48.092;11.484;2022-12-07T13:56:58;94930.69;;;5.93;87.07
10093;BME280;5085;48.092;11.484;2022-12-07T13:59:25;94935.13;;;5.88;88.87
10093;BME280;5085;48.092;11.484;2022-12-07T14:01:52;94940.97;;;5.85;89.98
10093;BME280;5085;48.092;11.484;2022-12-07T14:06:49;94938.69;;;5.93;89.95
10093;BME280;5085;48.092;11.484;2022-12-07T14:09:25;94923.84;;;6.03;89.48
10093;BME280;5085;48.092;11.484;2022-12-07T14:11:54;94933.22;;;6.05;89.97
10093;BME280;5085;48.092;11.484;2022-12-07T14:14:24;94930.19;;;5.96;90.15
10093;BME280;5085;48.092;11.484;2022-12-07T14:17:02;94931.63;;;5.82;91.19
10093;BME280;5085;48.092;11.484;2022-12-07T14:19:48;94922.22;;;5.58;92.39
10093;BME280;5085;48.092;11.484;2022-12-07T14:24:49;94934.88;;;5.07;93.60
10093;BME280;5085;48.092;11.484;2022-12-07T14:27:21;94926.50;;;4.81;94.79
10093;BME280;5085;48.092;11.484;2022-12-07T14:29:47;94929.91;;;4.60;96.85
10093;BME280;5085;48.092;11.484;2022-12-07T14:32:26;94920.50;;;4.40;98.61
10093;BME280;5085;48.092;11.484;2022-12-07T14:35:07;94926.88;;;4.22;100.00
10093;BME280;5085;48.092;11.484;2022-12-07T14:37:34;94930.88;;;4.08;100.00
10093;BME280;5085;48.092;11.484;2022-12-07T14:40:00;94923.16;;;3.95;100.00
10093;BME280;5085;48.092;11.484;2022-12-07T14:42:28;94926.38;;;3.80;100.00
10093;BME280;5085;48.092;11.484;2022-12-07T14:44:56;94929.84;;;3.69;100.00
10093;BME280;5085;48.092;11.484;2022-12-07T14:47:23;94931.19;;;3.55;100.00
10093;BME280;5085;48.092;11.484;2022-12-07T14:49:49;94933.53;;;3.39;100.00
10093;BME280;5085;48.092;11.484;2022-12-07T14:52:26;94925.78;;;3.26;100.00
10093;BME280;5085;48.092;11.484;2022-12-07T14:54:52;94930.91;;;3.16;100.00
10093;BME280;5085;48.092;11.484;2022-12-07T14:57:18;94929.06;;;3.05;100.00
10093;BME280;5085;48.092;11.484;2022-12-07T14:59:44;94922.13;;;2.92;100.00
10093;BME280;5085;48.092;11.484;2022-12-07T15:02:13;94919.25;;;2.82;100.00
10093;BME280;5085;48.092;11.484;2022-12-07T15:04:39;94925.97;;;2.72;100.00
10093;BME280;5085;48.092;11.484;2022-12-07T15:07:10;94923.03;;;2.62;100.00
10093;BME280;5085;48.092;11.484;2022-12-07T15:09:40;94916.91;;;2.50;100.00
10093;BME280;5085;48.092;11.484;2022-12-07T15:12:06;94923.59;;;2.41;100.00
10093;BME280;5085;48.092;11.484;2022-12-07T15:14:32;94919.66;;;2.32;100.00
10093;BME280;5085;48.092;11.484;2022-12-07T15:16:58;94922.63;;;2.23;100.00
10093;BME280;5085;48.092;11.484;2022-12-07T15:19:25;94923.78;;;2.16;100.00
10093;BME280;5085;48.092;11.484;2022-12-07T15:21:52;94919.69;;;2.02;100.00
10093;BME280;5085;48.092;11.484;2022-12-07T15:24:19;94918.03;;;1.89;100.00
10093;BME280;5085;48.092;11.484;2022-12-07T15:26:46;94923.66;;;1.81;100.00
10093;BME280;5085;48.092;11.484;2022-12-07T15:29:12;94915.66;;;1.69;100.00
10093;BME280;5085;48.092;11.484;2022-12-07T15:31:40;94919.53;;;1.55;100.00
10093;BME280;5085;48.092;11.484;2022-12-07T15:34:06;94925.56;;;1.43;100.00
10093;BME280;5085;48.092;11.484;2022-12-07T15:36:33;94928.97;;;1.32;100.00
10093;BME280;5085;48.092;11.484;2022-12-07T15:39:00;94927.00;;;1.28;100.00